Terminal Aerodrome Forecast
Issued by NWS

Home | Current Version | Previous Version | Text Only | Print | Product List | Glossary On
Versions: 1 2 3 4 5 6 7 8 9 10 11 12 13 14 15 16
000
FTUS43 KEAX 260724 AAA
TAFMKC
TAF AMD
KMKC 260724Z 2607/2706 14004KT P6SM SCT150
     FM260800 15005KT P6SM VCTS OVC050CB
     FM261000 20004KT P6SM SCT090
     FM261700 31005KT P6SM SCT050
     FM270200 04002KT P6SM SCT150=

USA.gov is the U.S. government's official web portal to all federal, state and local government web resources and services.